Terminal Aerodrome Forecast
Issued by NWS

Home | Current Version | Previous Version | Text Only | Print | Product List | Glossary On
Versions: 1 2 3 4 5 6 7 8 9 10 11 12 13 14 15 16 17 18 19 20 21 22 23 24 25 26 27 28 29 30 31 32 33 34 35 36 37
000
FTAK31 PANC 161742
TAFACD
TAF
PACD 161742Z 1618/1718 VRB06KT 6SM -SHRA BR FEW005 BKN015 OVC025
     FM162100 24016KT P6SM -SHRA SCT015 OVC025
     FM170200 28015KT P6SM VCSH SCT015 BKN025
     FM171200 30008KT P6SM SCT015 BKN025=

USA.gov is the U.S. government's official web portal to all federal, state and local government web resources and services.